sensor_id;sensor_type;location;lat;lon;timestamp;temperature;humidity
9403;DHT22;4741;49.834;10.740;2022-09-17T01:15:46;8.20;99.90
9403;DHT22;4741;49.834;10.740;2022-09-17T01:18:37;8.60;99.90
9403;DHT22;4741;49.834;10.740;2022-09-17T01:21:56;8.60;99.90
9403;DHT22;4741;49.834;10.740;2022-09-17T01:32:07;8.50;99.90
9403;DHT22;4741;49.834;10.740;2022-09-17T01:34:45;8.50;99.90
9403;DHT22;4741;49.834;10.740;2022-09-17T01:37:17;8.40;99.90
9403;DHT22;4741;49.834;10.740;2022-09-17T01:44:59;8.30;99.90
9403;DHT22;4741;49.834;10.740;2022-09-17T01:47:30;8.70;99.90
9403;DHT22;4741;49.834;10.740;2022-09-17T01:50:00;8.30;99.90
9403;DHT22;4741;49.834;10.740;2022-09-17T01:52:28;8.90;99.90
9403;DHT22;4741;49.834;10.740;2022-09-17T01:54:57;8.40;99.90
9403;DHT22;4741;49.834;10.740;2022-09-17T01:59:57;8.40;99.90
9403;DHT22;4741;49.834;10.740;2022-09-17T02:03:11;8.40;99.90
9403;DHT22;4741;49.834;10.740;2022-09-17T02:05:24;8.40;99.90
9403;DHT22;4741;49.834;10.740;2022-09-17T02:08:29;8.50;99.90
9403;DHT22;4741;49.834;10.740;2022-09-17T02:11:13;8.50;99.90
9403;DHT22;4741;49.834;10.740;2022-09-17T02:16:28;8.50;99.90
9403;DHT22;4741;49.834;10.740;2022-09-17T02:24:22;8.50;99.90
9403;DHT22;4741;49.834;10.740;2022-09-17T02:26:57;8.50;99.90
9403;DHT22;4741;49.834;10.740;2022-09-17T02:29:42;8.50;99.90
9403;DHT22;4741;49.834;10.740;2022-09-17T02:32:09;8.50;99.90
9403;DHT22;4741;49.834;10.740;2022-09-17T02:34:36;8.50;99.90
9403;DHT22;4741;49.834;10.740;2022-09-17T02:37:03;8.50;99.90
9403;DHT22;4741;49.834;10.740;2022-09-17T02:39:30;8.50;99.90
9403;DHT22;4741;49.834;10.740;2022-09-17T02:52:44;8.60;99.90
9403;DHT22;4741;49.834;10.740;2022-09-17T02:57:45;8.60;99.90
9403;DHT22;4741;49.834;10.740;2022-09-17T03:00:17;8.60;99.90
9403;DHT22;4741;49.834;10.740;2022-09-17T03:02:46;8.70;99.90
9403;DHT22;4741;49.834;10.740;2022-09-17T03:05:14;8.60;99.90
9403;DHT22;4741;49.834;10.740;2022-09-17T03:07:42;8.60;99.90
9403;DHT22;4741;49.834;10.740;2022-09-17T03:10:09;8.60;99.90
9403;DHT22;4741;49.834;10.740;2022-09-17T03:12:35;8.80;99.90
9403;DHT22;4741;49.834;10.740;2022-09-17T03:15:03;8.70;99.90
9403;DHT22;4741;49.834;10.740;2022-09-17T03:17:30;8.70;99.90
9403;DHT22;4741;49.834;10.740;2022-09-17T03:19:56;8.80;99.90
9403;DHT22;4741;49.834;10.740;2022-09-17T03:22:25;8.80;99.90
9403;DHT22;4741;49.834;10.740;2022-09-17T03:24:53;8.90;99.90
9403;DHT22;4741;49.834;10.740;2022-09-17T03:27:21;8.90;99.90
9403;DHT22;4741;49.834;10.740;2022-09-17T03:29:48;8.90;99.90
9403;DHT22;4741;49.834;10.740;2022-09-17T03:32:14;8.80;99.90
9403;DHT22;4741;49.834;10.740;2022-09-17T03:34:41;8.90;99.90
9403;DHT22;4741;49.834;10.740;2022-09-17T03:37:08;8.90;99.90
9403;DHT22;4741;49.834;10.740;2022-09-17T03:39:34;9.00;99.90
9403;DHT22;4741;49.834;10.740;2022-09-17T03:42:01;9.00;99.90
9403;DHT22;4741;49.834;10.740;2022-09-17T03:44:28;8.90;99.90
9403;DHT22;4741;49.834;10.740;2022-09-17T03:46:54;9.00;99.90
9403;DHT22;4741;49.834;10.740;2022-09-17T03:49:22;9.50;99.90
9403;DHT22;4741;49.834;10.740;2022-09-17T03:51:49;9.30;99.90
9403;DHT22;4741;49.834;10.740;2022-09-17T03:54:16;9.10;99.90
9403;DHT22;4741;49.834;10.740;2022-09-17T03:56:43;9.10;99.90
9403;DHT22;4741;49.834;10.740;2022-09-17T03:59:09;9.10;99.90
9403;DHT22;4741;49.834;10.740;2022-09-17T04:01:46;9.10;99.90
9403;DHT22;4741;49.834;10.740;2022-09-17T04:04:13;9.00;99.90
9403;DHT22;4741;49.834;10.740;2022-09-17T04:06:40;9.00;99.90
9403;DHT22;4741;49.834;10.740;2022-09-17T04:09:06;9.00;99.90
9403;DHT22;4741;49.834;10.740;2022-09-17T04:11:34;9.00;99.90
9403;DHT22;4741;49.834;10.740;2022-09-17T04:14:01;8.90;99.90
9403;DHT22;4741;49.834;10.740;2022-09-17T04:16:27;8.90;99.90
9403;DHT22;4741;49.834;10.740;2022-09-17T04:18:54;8.60;99.90
9403;DHT22;4741;49.834;10.740;2022-09-17T04:21:21;8.70;99.90
9403;DHT22;4741;49.834;10.740;2022-09-17T04:23:47;8.80;99.90
9403;DHT22;4741;49.834;10.740;2022-09-17T04:26:14;8.80;99.90
9403;DHT22;4741;49.834;10.740;2022-09-17T04:28:41;8.80;99.90
9403;DHT22;4741;49.834;10.740;2022-09-17T04:31:07;8.70;99.90
9403;DHT22;4741;49.834;10.740;2022-09-17T04:33:34;8.70;99.90
9403;DHT22;4741;49.834;10.740;2022-09-17T04:36:02;8.80;99.90
9403;DHT22;4741;49.834;10.740;2022-09-17T04:38:29;8.70;99.90
9403;DHT22;4741;49.834;10.740;2022-09-17T04:40:56;8.70;99.90
9403;DHT22;4741;49.834;10.740;2022-09-17T04:43:22;8.70;99.90
9403;DHT22;4741;49.834;10.740;2022-09-17T04:45:50;8.60;99.90
9403;DHT22;4741;49.834;10.740;2022-09-17T04:48:17;8.60;99.90
9403;DHT22;4741;49.834;10.740;2022-09-17T04:50:43;8.60;99.90
9403;DHT22;4741;49.834;10.740;2022-09-17T04:53:10;9.40;99.90
9403;DHT22;4741;49.834;10.740;2022-09-17T04:55:37;8.60;99.90
9403;DHT22;4741;49.834;10.740;2022-09-17T04:58:04;8.50;99.90
9403;DHT22;4741;49.834;10.740;2022-09-17T05:00:31;8.40;99.90
9403;DHT22;4741;49.834;10.740;2022-09-17T05:02:58;8.30;99.90
9403;DHT22;4741;49.834;10.740;2022-09-17T05:05:24;8.30;99.90
9403;DHT22;4741;49.834;10.740;2022-09-17T05:07:51;8.00;99.90
9403;DHT22;4741;49.834;10.740;2022-09-17T05:10:18;7.90;99.90
9403;DHT22;4741;49.834;10.740;2022-09-17T05:15:15;8.20;99.90
9403;DHT22;4741;49.834;10.740;2022-09-17T05:17:42;8.20;99.90
9403;DHT22;4741;49.834;10.740;2022-09-17T05:20:09;8.10;99.90
9403;DHT22;4741;49.834;10.740;2022-09-17T05:22:39;8.10;99.90
9403;DHT22;4741;49.834;10.740;2022-09-17T05:25:05;8.10;99.90
9403;DHT22;4741;49.834;10.740;2022-09-17T05:27:32;8.10;99.90
9403;DHT22;4741;49.834;10.740;2022-09-17T05:29:59;6.90;99.90
9403;DHT22;4741;49.834;10.740;2022-09-17T05:32:25;9.50;99.90
9403;DHT22;4741;49.834;10.740;2022-09-17T05:34:52;7.80;99.90
9403;DHT22;4741;49.834;10.740;2022-09-17T05:37:19;7.80;99.90
9403;DHT22;4741;49.834;10.740;2022-09-17T05:39:45;7.50;99.90
9403;DHT22;4741;49.834;10.740;2022-09-17T05:42:12;8.00;99.90
9403;DHT22;4741;49.834;10.740;2022-09-17T05:44:38;7.90;99.90
9403;DHT22;4741;49.834;10.740;2022-09-17T05:47:05;7.80;99.90
9403;DHT22;4741;49.834;10.740;2022-09-17T05:49:32;7.60;99.90
9403;DHT22;4741;49.834;10.740;2022-09-17T05:51:58;8.00;99.90
9403;DHT22;4741;49.834;10.740;2022-09-17T05:54:25;7.70;99.90
9403;DHT22;4741;49.834;10.740;2022-09-17T05:56:52;8.10;99.90
9403;DHT22;4741;49.834;10.740;2022-09-17T05:59:19;8.00;99.90
9403;DHT22;4741;49.834;10.740;2022-09-17T06:01:45;8.30;99.90
9403;DHT22;4741;49.834;10.740;2022-09-17T06:04:12;7.00;99.90
9403;DHT22;4741;49.834;10.740;2022-09-17T06:06:39;7.20;99.90
9403;DHT22;4741;49.834;10.740;2022-09-17T06:09:07;8.30;99.90
9403;DHT22;4741;49.834;10.740;2022-09-17T06:11:34;9.60;99.90
9403;DHT22;4741;49.834;10.740;2022-09-17T06:14:01;8.30;99.90
9403;DHT22;4741;49.834;10.740;2022-09-17T06:16:28;9.50;99.90
9403;DHT22;4741;49.834;10.740;2022-09-17T06:18:55;7.80;99.90
9403;DHT22;4741;49.834;10.740;2022-09-17T06:21:22;8.50;99.90
9403;DHT22;4741;49.834;10.740;2022-09-17T06:23:49;8.50;99.90
9403;DHT22;4741;49.834;10.740;2022-09-17T06:26:16;8.50;99.90
9403;DHT22;4741;49.834;10.740;2022-09-17T06:28:42;8.60;99.90
9403;DHT22;4741;49.834;10.740;2022-09-17T06:31:10;8.60;99.90
9403;DHT22;4741;49.834;10.740;2022-09-17T06:33:37;9.50;99.90
9403;DHT22;4741;49.834;10.740;2022-09-17T06:36:05;8.50;99.90
9403;DHT22;4741;49.834;10.740;2022-09-17T06:38:38;8.70;99.90
9403;DHT22;4741;49.834;10.740;2022-09-17T06:41:05;8.60;99.90
9403;DHT22;4741;49.834;10.740;2022-09-17T06:43:32;8.70;99.90
9403;DHT22;4741;49.834;10.740;2022-09-17T06:46:02;8.80;99.90
9403;DHT22;4741;49.834;10.740;2022-09-17T06:48:32;8.80;99.90
9403;DHT22;4741;49.834;10.740;2022-09-17T06:51:03;8.80;99.90
9403;DHT22;4741;49.834;10.740;2022-09-17T06:53:30;8.90;99.90
9403;DHT22;4741;49.834;10.740;2022-09-17T06:55:57;8.70;99.90
9403;DHT22;4741;49.834;10.740;2022-09-17T06:58:30;8.90;99.90
9403;DHT22;4741;49.834;10.740;2022-09-17T07:00:58;8.90;99.90
9403;DHT22;4741;49.834;10.740;2022-09-17T07:03:26;8.80;99.90
9403;DHT22;4741;49.834;10.740;2022-09-17T07:08:20;9.10;99.90
9403;DHT22;4741;49.834;10.740;2022-09-17T07:10:46;8.60;99.90
9403;DHT22;4741;49.834;10.740;2022-09-17T07:13:13;9.00;99.90
9403;DHT22;4741;49.834;10.740;2022-09-17T07:15:40;9.00;99.90
9403;DHT22;4741;49.834;10.740;2022-09-17T07:18:10;9.10;99.90
9403;DHT22;4741;49.834;10.740;2022-09-17T07:20:37;9.10;99.90
9403;DHT22;4741;49.834;10.740;2022-09-17T07:23:04;8.80;99.90
9403;DHT22;4741;49.834;10.740;2022-09-17T07:25:31;9.00;99.90
9403;DHT22;4741;49.834;10.740;2022-09-17T07:27:57;9.20;99.90
9403;DHT22;4741;49.834;10.740;2022-09-17T07:30:25;9.00;99.90
9403;DHT22;4741;49.834;10.740;2022-09-17T07:32:51;9.20;99.90
9403;DHT22;4741;49.834;10.740;2022-09-17T07:35:18;10.00;99.90
9403;DHT22;4741;49.834;10.740;2022-09-17T07:37:45;8.90;99.90
9403;DHT22;4741;49.834;10.740;2022-09-17T07:40:12;8.60;99.90
9403;DHT22;4741;49.834;10.740;2022-09-17T07:42:39;8.50;99.90
9403;DHT22;4741;49.834;10.740;2022-09-17T07:47:37;9.50;99.90
9403;DHT22;4741;49.834;10.740;2022-09-17T07:50:03;9.20;99.90
9403;DHT22;4741;49.834;10.740;2022-09-17T07:52:30;9.50;99.90
9403;DHT22;4741;49.834;10.740;2022-09-17T07:54:56;9.50;99.90
9403;DHT22;4741;49.834;10.740;2022-09-17T07:57:23;9.60;99.90
9403;DHT22;4741;49.834;10.740;2022-09-17T07:59:50;9.60;99.90
9403;DHT22;4741;49.834;10.740;2022-09-17T08:02:16;9.70;99.90
9403;DHT22;4741;49.834;10.740;2022-09-17T08:04:49;9.60;99.90
9403;DHT22;4741;49.834;10.740;2022-09-17T08:07:16;9.70;99.90
9403;DHT22;4741;49.834;10.740;2022-09-17T08:09:42;9.50;99.90
9403;DHT22;4741;49.834;10.740;2022-09-17T08:12:09;9.80;99.90
9403;DHT22;4741;49.834;10.740;2022-09-17T08:19:53;10.30;99.90
9403;DHT22;4741;49.834;10.740;2022-09-17T08:22:20;10.30;99.90
9403;DHT22;4741;49.834;10.740;2022-09-17T08:24:46;9.70;99.90
9403;DHT22;4741;49.834;10.740;2022-09-17T09:01:47;10.40;99.90
9403;DHT22;4741;49.834;10.740;2022-09-17T09:09:33;11.30;99.90
9403;DHT22;4741;49.834;10.740;2022-09-17T09:12:05;11.30;99.90
9403;DHT22;4741;49.834;10.740;2022-09-17T09:14:48;11.30;99.90
9403;DHT22;4741;49.834;10.740;2022-09-17T09:17:16;11.30;99.90
9403;DHT22;4741;49.834;10.740;2022-09-17T09:19:44;11.20;99.90
9403;DHT22;4741;49.834;10.740;2022-09-17T09:24:40;11.50;99.90
9403;DHT22;4741;49.834;10.740;2022-09-17T09:35:11;12.40;99.90
9403;DHT22;4741;49.834;10.740;2022-09-17T09:37:40;12.40;99.90
9403;DHT22;4741;49.834;10.740;2022-09-17T09:40:18;12.00;99.90
9403;DHT22;4741;49.834;10.740;2022-09-17T09:42:46;12.20;99.90
9403;DHT22;4741;49.834;10.740;2022-09-17T09:45:32;12.50;99.90
9403;DHT22;4741;49.834;10.740;2022-09-17T09:50:32;12.60;99.90
9403;DHT22;4741;49.834;10.740;2022-09-17T09:56:00;13.10;99.90
9403;DHT22;4741;49.834;10.740;2022-09-17T09:58:36;12.90;99.90
9403;DHT22;4741;49.834;10.740;2022-09-17T10:01:14;12.90;99.90
9403;DHT22;4741;49.834;10.740;2022-09-17T10:03:42;12.90;99.90
9403;DHT22;4741;49.834;10.740;2022-09-17T10:06:13;12.60;99.90
9403;DHT22;4741;49.834;10.740;2022-09-17T10:08:41;12.60;99.90
9403;DHT22;4741;49.834;10.740;2022-09-17T10:11:30;12.70;99.90
9403;DHT22;4741;49.834;10.740;2022-09-17T10:16:46;12.70;99.90
9403;DHT22;4741;49.834;10.740;2022-09-17T10:19:17;13.00;99.90
9403;DHT22;4741;49.834;10.740;2022-09-17T10:21:44;12.90;99.90
9403;DHT22;4741;49.834;10.740;2022-09-17T10:24:20;12.70;99.90
9403;DHT22;4741;49.834;10.740;2022-09-17T10:29:22;14.10;99.90
9403;DHT22;4741;49.834;10.740;2022-09-17T10:31:50;13.30;99.90
9403;DHT22;4741;49.834;10.740;2022-09-17T10:34:18;15.60;99.90
9403;DHT22;4741;49.834;10.740;2022-09-17T10:36:45;15.00;99.90
9403;DHT22;4741;49.834;10.740;2022-09-17T10:41:55;15.40;99.90
9403;DHT22;4741;49.834;10.740;2022-09-17T10:44:22;14.80;99.90
9403;DHT22;4741;49.834;10.740;2022-09-17T10:46:50;14.30;99.90
9403;DHT22;4741;49.834;10.740;2022-09-17T10:49:31;15.30;99.90
9403;DHT22;4741;49.834;10.740;2022-09-17T10:52:03;14.90;99.90
9403;DHT22;4741;49.834;10.740;2022-09-17T10:54:37;15.20;99.90
9403;DHT22;4741;49.834;10.740;2022-09-17T10:57:06;15.80;99.90
9403;DHT22;4741;49.834;10.740;2022-09-17T10:59:48;14.80;99.90
9403;DHT22;4741;49.834;10.740;2022-09-17T11:07:56;15.40;99.90
9403;DHT22;4741;49.834;10.740;2022-09-17T11:15:45;15.20;99.90
9403;DHT22;4741;49.834;10.740;2022-09-17T11:18:22;15.20;99.90
9403;DHT22;4741;49.834;10.740;2022-09-17T11:28:38;18.00;99.90
9403;DHT22;4741;49.834;10.740;2022-09-17T11:36:51;15.50;99.90
9403;DHT22;4741;49.834;10.740;2022-09-17T11:39:28;14.70;99.90
9403;DHT22;4741;49.834;10.740;2022-09-17T11:41:57;15.30;99.90
9403;DHT22;4741;49.834;10.740;2022-09-17T11:44:27;16.20;99.90
9403;DHT22;4741;49.834;10.740;2022-09-17T11:52:01;18.40;99.90
9403;DHT22;4741;49.834;10.740;2022-09-17T11:54:35;19.70;99.90
9403;DHT22;4741;49.834;10.740;2022-09-17T11:57:13;17.50;99.90
9403;DHT22;4741;49.834;10.740;2022-09-17T11:59:55;17.30;99.90
9403;DHT22;4741;49.834;10.740;2022-09-17T12:05:04;17.70;99.90
9403;DHT22;4741;49.834;10.740;2022-09-17T12:07:47;17.40;99.90
9403;DHT22;4741;49.834;10.740;2022-09-17T12:13:01;16.10;99.90
9403;DHT22;4741;49.834;10.740;2022-09-17T12:15:29;16.40;99.90
9403;DHT22;4741;49.834;10.740;2022-09-17T12:23:13;15.10;99.90
9403;DHT22;4741;49.834;10.740;2022-09-17T12:25:51;14.90;99.90
9403;DHT22;4741;49.834;10.740;2022-09-17T12:28:25;15.00;99.90
9403;DHT22;4741;49.834;10.740;2022-09-17T12:31:00;14.70;99.90
9403;DHT22;4741;49.834;10.740;2022-09-17T12:33:33;14.90;99.90
9403;DHT22;4741;49.834;10.740;2022-09-17T12:38:51;14.40;99.90
9403;DHT22;4741;49.834;10.740;2022-09-17T12:51:55;12.90;99.90
9403;DHT22;4741;49.834;10.740;2022-09-17T12:54:28;12.90;99.90
9403;DHT22;4741;49.834;10.740;2022-09-17T12:56:59;12.90;99.90
9403;DHT22;4741;49.834;10.740;2022-09-17T12:59:28;12.70;99.90
9403;DHT22;4741;49.834;10.740;2022-09-17T13:02:14;12.70;99.90
9403;DHT22;4741;49.834;10.740;2022-09-17T13:07:32;15.90;99.90
9403;DHT22;4741;49.834;10.740;2022-09-17T13:23:42;16.90;99.90
9403;DHT22;4741;49.834;10.740;2022-09-17T13:31:05;17.20;99.90
9403;DHT22;4741;49.834;10.740;2022-09-17T13:33:50;16.70;99.90
9403;DHT22;4741;49.834;10.740;2022-09-17T13:39:53;17.00;99.90
9403;DHT22;4741;49.834;10.740;2022-09-17T13:42:21;16.70;99.90
9403;DHT22;4741;49.834;10.740;2022-09-17T13:44:50;16.60;99.90
9403;DHT22;4741;49.834;10.740;2022-09-17T13:49:47;19.80;99.90
9403;DHT22;4741;49.834;10.740;2022-09-17T13:52:27;20.70;99.90
9403;DHT22;4741;49.834;10.740;2022-09-17T13:57:22;18.50;99.90
9403;DHT22;4741;49.834;10.740;2022-09-17T14:09:45;19.40;99.90
9403;DHT22;4741;49.834;10.740;2022-09-17T14:15:00;19.70;99.90
9403;DHT22;4741;49.834;10.740;2022-09-17T14:20:12;21.00;99.90
9403;DHT22;4741;49.834;10.740;2022-09-17T14:27:40;19.30;99.90
9403;DHT22;4741;49.834;10.740;2022-09-17T14:32:42;17.00;99.90
9403;DHT22;4741;49.834;10.740;2022-09-17T14:37:37;18.20;99.90
9403;DHT22;4741;49.834;10.740;2022-09-17T14:40:08;17.20;99.90
9403;DHT22;4741;49.834;10.740;2022-09-17T14:42:35;17.80;99.90
9403;DHT22;4741;49.834;10.740;2022-09-17T14:45:05;20.80;99.90
9403;DHT22;4741;49.834;10.740;2022-09-17T14:47:33;21.60;99.90
9403;DHT22;4741;49.834;10.740;2022-09-17T14:52:28;17.90;99.90
9403;DHT22;4741;49.834;10.740;2022-09-17T15:02:19;16.40;99.90
9403;DHT22;4741;49.834;10.740;2022-09-17T15:04:47;16.80;99.90
9403;DHT22;4741;49.834;10.740;2022-09-17T15:09:42;19.40;99.90
9403;DHT22;4741;49.834;10.740;2022-09-17T15:12:10;20.70;99.90
9403;DHT22;4741;49.834;10.740;2022-09-17T15:14:42;19.10;99.90
9403;DHT22;4741;49.834;10.740;2022-09-17T15:17:16;20.50;99.90
9403;DHT22;4741;49.834;10.740;2022-09-17T15:19:44;19.00;99.90
9403;DHT22;4741;49.834;10.740;2022-09-17T15:22:21;19.90;99.90
9403;DHT22;4741;49.834;10.740;2022-09-17T15:24:51;17.30;99.90
9403;DHT22;4741;49.834;10.740;2022-09-17T15:27:39;17.20;99.90
9403;DHT22;4741;49.834;10.740;2022-09-17T15:32:48;17.90;99.90
9403;DHT22;4741;49.834;10.740;2022-09-17T15:37:51;17.10;99.90
9403;DHT22;4741;49.834;10.740;2022-09-17T15:43:26;15.50;99.90
9403;DHT22;4741;49.834;10.740;2022-09-17T15:45:53;15.10;99.90
9403;DHT22;4741;49.834;10.740;2022-09-17T15:50:53;17.10;99.90
9403;DHT22;4741;49.834;10.740;2022-09-17T15:53:25;16.40;99.90
9403;DHT22;4741;49.834;10.740;2022-09-17T15:58:27;14.60;99.90
9403;DHT22;4741;49.834;10.740;2022-09-17T16:08:46;13.40;99.90
9403;DHT22;4741;49.834;10.740;2022-09-17T16:11:14;14.20;99.90
9403;DHT22;4741;49.834;10.740;2022-09-17T16:13:41;14.30;99.90
9403;DHT22;4741;49.834;10.740;2022-09-17T16:16:08;13.80;99.90
9403;DHT22;4741;49.834;10.740;2022-09-17T16:18:39;13.70;99.90
9403;DHT22;4741;49.834;10.740;2022-09-17T16:21:07;12.70;99.90
9403;DHT22;4741;49.834;10.740;2022-09-17T16:23:35;12.70;99.90
9403;DHT22;4741;49.834;10.740;2022-09-17T16:26:03;12.60;99.90
9403;DHT22;4741;49.834;10.740;2022-09-17T16:28:30;12.40;99.90
9403;DHT22;4741;49.834;10.740;2022-09-17T16:30:57;12.20;99.90
9403;DHT22;4741;49.834;10.740;2022-09-17T16:33:24;12.00;99.90
9403;DHT22;4741;49.834;10.740;2022-09-17T16:35:57;11.50;99.90
9403;DHT22;4741;49.834;10.740;2022-09-17T16:38:24;12.00;99.90
9403;DHT22;4741;49.834;10.740;2022-09-17T16:40:51;11.80;99.90
9403;DHT22;4741;49.834;10.740;2022-09-17T16:43:18;11.60;99.90
9403;DHT22;4741;49.834;10.740;2022-09-17T16:48:44;11.50;99.90
9403;DHT22;4741;49.834;10.740;2022-09-17T16:51:14;11.40;99.90
9403;DHT22;4741;49.834;10.740;2022-09-17T16:53:41;11.30;99.90
9403;DHT22;4741;49.834;10.740;2022-09-17T16:56:08;11.10;99.90
9403;DHT22;4741;49.834;10.740;2022-09-17T16:58:35;11.20;99.90
9403;DHT22;4741;49.834;10.740;2022-09-17T17:01:05;11.00;99.90
9403;DHT22;4741;49.834;10.740;2022-09-17T17:03:32;11.20;99.90
9403;DHT22;4741;49.834;10.740;2022-09-17T17:06:00;11.70;99.90
9403;DHT22;4741;49.834;10.740;2022-09-17T17:08:41;11.60;99.90
9403;DHT22;4741;49.834;10.740;2022-09-17T17:11:08;11.00;99.90
9403;DHT22;4741;49.834;10.740;2022-09-17T17:13:35;10.70;99.90
9403;DHT22;4741;49.834;10.740;2022-09-17T17:16:08;10.80;99.90
9403;DHT22;4741;49.834;10.740;2022-09-17T17:18:35;10.80;99.90
9403;DHT22;4741;49.834;10.740;2022-09-17T17:21:05;10.70;99.90
9403;DHT22;4741;49.834;10.740;2022-09-17T17:23:32;10.70;99.90
9403;DHT22;4741;49.834;10.740;2022-09-17T17:26:00;10.70;99.90
9403;DHT22;4741;49.834;10.740;2022-09-17T17:28:29;10.50;99.90
9403;DHT22;4741;49.834;10.740;2022-09-17T17:30:56;10.50;99.90
9403;DHT22;4741;49.834;10.740;2022-09-17T17:35:50;10.30;99.90
9403;DHT22;4741;49.834;10.740;2022-09-17T17:38:16;10.30;99.90
9403;DHT22;4741;49.834;10.740;2022-09-17T17:40:43;10.30;99.90
9403;DHT22;4741;49.834;10.740;2022-09-17T17:43:11;10.20;99.90
9403;DHT22;4741;49.834;10.740;2022-09-17T17:45:38;10.20;99.90
9403;DHT22;4741;49.834;10.740;2022-09-17T17:48:05;10.20;99.90
9403;DHT22;4741;49.834;10.740;2022-09-17T17:50:32;10.20;99.90
9403;DHT22;4741;49.834;10.740;2022-09-17T17:52:58;10.10;99.90
9403;DHT22;4741;49.834;10.740;2022-09-17T17:55:25;10.10;99.90
9403;DHT22;4741;49.834;10.740;2022-09-17T17:57:55;10.00;99.90
9403;DHT22;4741;49.834;10.740;2022-09-17T18:00:26;10.00;99.90
9403;DHT22;4741;49.834;10.740;2022-09-17T18:02:53;9.90;99.90
9403;DHT22;4741;49.834;10.740;2022-09-17T18:05:20;9.90;99.90
9403;DHT22;4741;49.834;10.740;2022-09-17T18:07:47;9.80;99.90
9403;DHT22;4741;49.834;10.740;2022-09-17T18:10:15;9.70;99.90
9403;DHT22;4741;49.834;10.740;2022-09-17T18:12:41;9.60;99.90
9403;DHT22;4741;49.834;10.740;2022-09-17T18:15:15;9.60;99.90
9403;DHT22;4741;49.834;10.740;2022-09-17T18:17:42;9.60;99.90
9403;DHT22;4741;49.834;10.740;2022-09-17T18:20:09;9.60;99.90
9403;DHT22;4741;49.834;10.740;2022-09-17T18:22:36;9.60;99.90
9403;DHT22;4741;49.834;10.740;2022-09-17T18:25:02;9.50;99.90
9403;DHT22;4741;49.834;10.740;2022-09-17T18:27:29;9.40;99.90
9403;DHT22;4741;49.834;10.740;2022-09-17T18:29:56;9.40;99.90
9403;DHT22;4741;49.834;10.740;2022-09-17T18:32:22;9.40;99.90
9403;DHT22;4741;49.834;10.740;2022-09-17T18:34:49;9.40;99.90
9403;DHT22;4741;49.834;10.740;2022-09-17T18:37:17;9.30;99.90
9403;DHT22;4741;49.834;10.740;2022-09-17T18:39:43;9.20;99.90
9403;DHT22;4741;49.834;10.740;2022-09-17T18:42:24;9.20;99.90
9403;DHT22;4741;49.834;10.740;2022-09-17T18:44:51;9.20;99.90
9403;DHT22;4741;49.834;10.740;2022-09-17T18:47:17;9.20;99.90
9403;DHT22;4741;49.834;10.740;2022-09-17T18:49:44;9.10;99.90
9403;DHT22;4741;49.834;10.740;2022-09-17T18:52:10;9.10;99.90
9403;DHT22;4741;49.834;10.740;2022-09-17T18:54:37;9.10;99.90
9403;DHT22;4741;49.834;10.740;2022-09-17T18:57:04;9.10;99.90
9403;DHT22;4741;49.834;10.740;2022-09-17T18:59:30;9.30;99.90
9403;DHT22;4741;49.834;10.740;2022-09-17T19:01:57;9.00;99.90
9403;DHT22;4741;49.834;10.740;2022-09-17T19:04:24;9.00;99.90
9403;DHT22;4741;49.834;10.740;2022-09-17T19:06:51;8.90;99.90
9403;DHT22;4741;49.834;10.740;2022-09-17T19:09:17;9.00;99.90
9403;DHT22;4741;49.834;10.740;2022-09-17T19:11:44;9.00;99.90
9403;DHT22;4741;49.834;10.740;2022-09-17T19:14:10;9.00;99.90
9403;DHT22;4741;49.834;10.740;2022-09-17T19:16:37;9.10;99.90
9403;DHT22;4741;49.834;10.740;2022-09-17T19:19:04;9.20;99.90
9403;DHT22;4741;49.834;10.740;2022-09-17T19:21:30;9.20;99.90
9403;DHT22;4741;49.834;10.740;2022-09-17T19:23:57;9.20;99.90
9403;DHT22;4741;49.834;10.740;2022-09-17T19:26:25;9.20;99.90
9403;DHT22;4741;49.834;10.740;2022-09-17T19:28:52;9.10;99.90
9403;DHT22;4741;49.834;10.740;2022-09-17T19:31:19;9.20;99.90
9403;DHT22;4741;49.834;10.740;2022-09-17T19:33:46;9.20;99.90
9403;DHT22;4741;49.834;10.740;2022-09-17T19:36:13;9.20;99.90
9403;DHT22;4741;49.834;10.740;2022-09-17T19:38:40;9.20;99.90
9403;DHT22;4741;49.834;10.740;2022-09-17T19:41:15;9.20;99.90
9403;DHT22;4741;49.834;10.740;2022-09-17T19:43:42;9.20;99.90
9403;DHT22;4741;49.834;10.740;2022-09-17T19:46:12;9.20;99.90
9403;DHT22;4741;49.834;10.740;2022-09-17T19:48:46;9.20;99.90
9403;DHT22;4741;49.834;10.740;2022-09-17T19:51:14;9.20;99.90
9403;DHT22;4741;49.834;10.740;2022-09-17T19:53:41;9.20;99.90
9403;DHT22;4741;49.834;10.740;2022-09-17T19:56:11;9.10;99.90
9403;DHT22;4741;49.834;10.740;2022-09-17T19:58:38;9.20;99.90
9403;DHT22;4741;49.834;10.740;2022-09-17T20:01:05;9.10;99.90
9403;DHT22;4741;49.834;10.740;2022-09-17T20:03:31;9.20;99.90
9403;DHT22;4741;49.834;10.740;2022-09-17T20:05:59;9.20;99.90
9403;DHT22;4741;49.834;10.740;2022-09-17T20:08:25;9.20;99.90
9403;DHT22;4741;49.834;10.740;2022-09-17T20:10:52;9.20;99.90
9403;DHT22;4741;49.834;10.740;2022-09-17T20:13:20;9.20;99.90
9403;DHT22;4741;49.834;10.740;2022-09-17T20:15:47;9.10;99.90
9403;DHT22;4741;49.834;10.740;2022-09-17T20:18:13;9.10;99.90
9403;DHT22;4741;49.834;10.740;2022-09-17T20:20:45;9.10;99.90
9403;DHT22;4741;49.834;10.740;2022-09-17T20:23:12;9.10;99.90
9403;DHT22;4741;49.834;10.740;2022-09-17T20:25:39;9.10;99.90
9403;DHT22;4741;49.834;10.740;2022-09-17T20:28:06;9.00;99.90
9403;DHT22;4741;49.834;10.740;2022-09-17T20:30:32;9.00;99.90
9403;DHT22;4741;49.834;10.740;2022-09-17T20:32:59;9.00;99.90
9403;DHT22;4741;49.834;10.740;2022-09-17T20:35:25;9.00;99.90
9403;DHT22;4741;49.834;10.740;2022-09-17T20:37:52;9.00;99.90
9403;DHT22;4741;49.834;10.740;2022-09-17T20:40:38;8.90;99.90
9403;DHT22;4741;49.834;10.740;2022-09-17T20:43:05;8.90;99.90
9403;DHT22;4741;49.834;10.740;2022-09-17T20:45:32;8.80;99.90
9403;DHT22;4741;49.834;10.740;2022-09-17T20:47:58;8.80;99.90
9403;DHT22;4741;49.834;10.740;2022-09-17T20:50:25;8.80;99.90
9403;DHT22;4741;49.834;10.740;2022-09-17T20:52:51;8.80;99.90
9403;DHT22;4741;49.834;10.740;2022-09-17T20:55:18;8.70;99.90
9403;DHT22;4741;49.834;10.740;2022-09-17T20:57:45;8.70;99.90
9403;DHT22;4741;49.834;10.740;2022-09-17T21:00:11;8.60;99.90
9403;DHT22;4741;49.834;10.740;2022-09-17T21:02:46;8.60;99.90
9403;DHT22;4741;49.834;10.740;2022-09-17T21:05:16;8.50;99.90
9403;DHT22;4741;49.834;10.740;2022-09-17T21:07:43;8.50;99.90
9403;DHT22;4741;49.834;10.740;2022-09-17T21:10:10;8.50;99.90
9403;DHT22;4741;49.834;10.740;2022-09-17T21:12:37;8.40;99.90
9403;DHT22;4741;49.834;10.740;2022-09-17T21:15:04;8.40;99.90
9403;DHT22;4741;49.834;10.740;2022-09-17T21:17:31;8.40;99.90
9403;DHT22;4741;49.834;10.740;2022-09-17T21:19:59;8.30;99.90
9403;DHT22;4741;49.834;10.740;2022-09-17T21:22:25;8.30;99.90
9403;DHT22;4741;49.834;10.740;2022-09-17T21:24:52;8.30;99.90
9403;DHT22;4741;49.834;10.740;2022-09-17T21:27:19;8.30;99.90
9403;DHT22;4741;49.834;10.740;2022-09-17T21:29:45;8.30;99.90
9403;DHT22;4741;49.834;10.740;2022-09-17T21:32:12;8.20;99.90
9403;DHT22;4741;49.834;10.740;2022-09-17T21:34:38;8.20;99.90
9403;DHT22;4741;49.834;10.740;2022-09-17T21:37:05;8.20;99.90
9403;DHT22;4741;49.834;10.740;2022-09-17T21:39:32;8.10;99.90
9403;DHT22;4741;49.834;10.740;2022-09-17T21:42:00;8.20;99.90